Time;durP1;ratioP1;P1;durP2;ratioP2;P2;SDS_P1;SDS_P2;PMS_P1;PMS_P2;Temp;Humidity;BMP_temperature;BMP_pressure;BME280_temperature;BME280_humidity;BME280_pressure;Samples;Min_cycle;Max_cycle;Signal;HPM_P1;HPM_P2
2024/04/02 00:01:43;;;;;;;16.15;8.32;;;;;;;;;;4993276;28;20030;-80
2024/04/02 00:04:10;;;;;;;18.27;7.10;;;;;;;;;;4993594;28;20034;-80
2024/04/02 00:06:36;;;;;;;14.77;7.53;;;;;;;;;;5006592;28;20050;-79
2024/04/02 00:09:02;;;;;;;18.42;7.28;;;;;;;;;;4992251;28;20056;-80
2024/04/02 00:11:28;;;;;;;17.48;7.20;;;;;;;;;;4992708;28;20034;-79
2024/04/02 00:13:53;;;;;;;11.02;7.03;;;;;;;;;;5009084;28;20034;-77
2024/04/02 00:16:19;;;;;;;16.05;7.50;;;;;;;;;;5004222;28;20047;-80
2024/04/02 00:18:45;;;;;;;19.92;7.70;;;;;;;;;;4992031;28;20109;-81
2024/04/02 00:21:13;;;;;;;10.65;6.50;;;;;;;;;;4991551;28;20030;-81
2024/04/02 00:23:40;;;;;;;13.23;7.43;;;;;;;;;;5007893;28;20100;-81
2024/04/02 00:26:06;;;;;;;15.20;6.95;;;;;;;;;;5006711;28;20108;-80
2024/04/02 00:28:32;;;;;;;16.90;7.60;;;;;;;;;;4992317;28;20042;-80
2024/04/02 00:30:59;;;;;;;16.75;7.22;;;;;;;;;;5008437;28;20065;-79
2024/04/02 00:33:24;;;;;;;17.08;7.30;;;;;;;;;;4993107;28;20125;-80
2024/04/02 00:35:58;;;;;;;21.42;8.20;;;;;;;;;;5006318;28;20461;-80
2024/04/02 00:38:24;;;;;;;21.85;8.68;;;;;;;;;;4991818;28;20038;-79
2024/04/02 00:40:52;;;;;;;18.27;7.28;;;;;;;;;;4991716;28;20096;-79
2024/04/02 00:43:18;;;;;;;18.13;7.97;;;;;;;;;;4993090;28;20027;-79
2024/04/02 00:45:43;;;;;;;20.58;7.88;;;;;;;;;;4992629;28;20045;-79
2024/04/02 00:48:09;;;;;;;15.80;7.70;;;;;;;;;;4991288;28;20045;-80
2024/04/02 00:50:35;;;;;;;17.10;9.30;;;;;;;;;;4991786;28;20038;-79
2024/04/02 00:53:01;;;;;;;18.92;10.27;;;;;;;;;;4992902;28;20037;-81
2024/04/02 00:55:27;;;;;;;26.58;12.05;;;;;;;;;;4995855;28;20054;-80
2024/04/02 00:57:53;;;;;;;21.48;10.85;;;;;;;;;;4998402;28;20062;-81
2024/04/02 01:00:19;;;;;;;17.60;9.68;;;;;;;;;;4996588;28;20046;-82
2024/04/02 01:02:45;;;;;;;22.48;9.25;;;;;;;;;;4999101;28;20089;-82
2024/04/02 01:05:11;;;;;;;30.98;9.65;;;;;;;;;;5008655;28;20413;-82
2024/04/02 01:07:39;;;;;;;16.42;8.07;;;;;;;;;;5009277;28;20061;-80
2024/04/02 01:10:08;;;;;;;22.50;8.00;;;;;;;;;;4993122;28;20082;-81
2024/04/02 01:12:34;;;;;;;11.73;6.15;;;;;;;;;;4993065;28;20054;-80
2024/04/02 01:15:00;;;;;;;19.17;7.43;;;;;;;;;;5006215;28;20080;-77
2024/04/02 01:17:25;;;;;;;21.23;7.43;;;;;;;;;;4992620;28;20045;-79
2024/04/02 01:19:51;;;;;;;18.40;8.18;;;;;;;;;;4989259;28;20039;-77
2024/04/02 01:22:18;;;;;;;16.60;8.02;;;;;;;;;;4991202;28;20514;-80
2024/04/02 01:24:44;;;;;;;11.98;7.53;;;;;;;;;;4991033;28;20060;-80
2024/04/02 01:27:10;;;;;;;15.68;7.53;;;;;;;;;;4973619;28;20070;-80
2024/04/02 01:29:36;;;;;;;15.38;7.05;;;;;;;;;;5008564;28;20533;-80
2024/04/02 01:32:02;;;;;;;16.77;7.53;;;;;;;;;;4992025;28;20635;-80
2024/04/02 01:34:28;;;;;;;20.98;8.52;;;;;;;;;;4991709;28;20035;-79
2024/04/02 01:36:54;;;;;;;19.75;7.38;;;;;;;;;;4988794;28;20054;-75
2024/04/02 01:39:21;;;;;;;19.90;6.82;;;;;;;;;;5005592;28;20045;-79
2024/04/02 01:41:47;;;;;;;18.95;7.90;;;;;;;;;;4990973;28;20034;-80
2024/04/02 01:44:13;;;;;;;17.60;7.55;;;;;;;;;;4990885;28;20046;-80
2024/04/02 01:46:39;;;;;;;21.98;7.97;;;;;;;;;;5006640;28;20042;-80
2024/04/02 01:49:04;;;;;;;15.50;6.25;;;;;;;;;;4989565;28;20045;-77
2024/04/02 01:51:30;;;;;;;18.67;7.85;;;;;;;;;;4991603;28;20120;-80
2024/04/02 01:53:56;;;;;;;15.60;7.10;;;;;;;;;;5007164;28;20166;-80
2024/04/02 01:56:22;;;;;;;19.45;7.82;;;;;;;;;;5009331;28;20049;-80
2024/04/02 01:58:47;;;;;;;18.65;8.95;;;;;;;;;;5011772;28;20640;-81
2024/04/02 02:01:13;;;;;;;16.77;8.18;;;;;;;;;;4992646;28;20042;-80
2024/04/02 02:03:39;;;;;;;21.35;8.50;;;;;;;;;;4991192;28;20566;-79
2024/04/02 02:06:05;;;;;;;22.52;8.23;;;;;;;;;;4989488;28;20116;-80
2024/04/02 02:08:31;;;;;;;21.10;8.38;;;;;;;;;;4956028;28;20042;-80
2024/04/02 02:11:01;;;;;;;17.15;7.97;;;;;;;;;;4989706;28;20534;-78
2024/04/02 02:13:27;;;;;;;18.92;7.78;;;;;;;;;;4988170;28;20038;-80
2024/04/02 02:15:56;;;;;;;16.45;8.40;;;;;;;;;;4995525;28;20056;-81
2024/04/02 02:18:22;;;;;;;16.60;7.05;;;;;;;;;;5008743;28;20145;-80
2024/04/02 02:20:49;;;;;;;20.52;7.97;;;;;;;;;;4992291;28;20027;-79
2024/04/02 02:23:15;;;;;;;18.42;7.22;;;;;;;;;;4992300;28;20041;-79
2024/04/02 02:25:40;;;;;;;21.48;8.75;;;;;;;;;;4991196;28;20050;-80
2024/04/02 02:28:06;;;;;;;21.50;7.60;;;;;;;;;;4991620;28;20030;-79
2024/04/02 02:30:32;;;;;;;19.67;8.75;;;;;;;;;;4989919;28;20027;-81
2024/04/02 02:32:58;;;;;;;24.05;7.88;;;;;;;;;;4989041;28;20085;-80
2024/04/02 02:35:24;;;;;;;24.52;8.10;;;;;;;;;;4974055;28;20441;-80
2024/04/02 02:37:49;;;;;;;13.27;7.10;;;;;;;;;;4991566;28;20030;-79
2024/04/02 02:40:15;;;;;;;21.75;8.50;;;;;;;;;;4991598;28;20038;-80
2024/04/02 02:42:41;;;;;;;20.83;8.00;;;;;;;;;;4991610;28;20022;-81
2024/04/02 02:45:08;;;;;;;19.92;8.43;;;;;;;;;;4974230;28;20047;-80
2024/04/02 02:47:34;;;;;;;17.92;7.53;;;;;;;;;;4992596;28;20450;-80
2024/04/02 02:50:00;;;;;;;18.73;7.97;;;;;;;;;;5011415;28;20041;-79
2024/04/02 02:52:26;;;;;;;25.83;8.30;;;;;;;;;;4996000;28;20079;-81
2024/04/02 02:54:52;;;;;;;21.02;8.38;;;;;;;;;;4989214;28;20430;-80
2024/04/02 02:57:18;;;;;;;22.63;7.05;;;;;;;;;;5004456;28;20053;-80
2024/04/02 02:59:44;;;;;;;16.50;8.50;;;;;;;;;;5005025;28;20066;-79
2024/04/02 03:02:09;;;;;;;19.65;8.40;;;;;;;;;;4988221;28;20389;-79
2024/04/02 03:04:35;;;;;;;15.77;8.00;;;;;;;;;;4989707;28;20037;-79
2024/04/02 03:07:01;;;;;;;21.55;8.18;;;;;;;;;;5003748;28;20096;-79
2024/04/02 03:09:27;;;;;;;24.15;8.60;;;;;;;;;;4981521;28;20535;-80
2024/04/02 03:11:53;;;;;;;20.08;7.57;;;;;;;;;;4988162;28;20030;-79
2024/04/02 03:14:19;;;;;;;16.38;7.75;;;;;;;;;;4990629;28;20031;-80
2024/04/02 03:16:45;;;;;;;15.30;8.13;;;;;;;;;;4989913;28;20129;-81
2024/04/02 03:19:10;;;;;;;21.02;9.25;;;;;;;;;;4990743;28;20042;-80
2024/04/02 03:21:36;;;;;;;16.25;8.07;;;;;;;;;;4990379;28;20042;-81
2024/04/02 03:24:02;;;;;;;19.15;7.70;;;;;;;;;;4991616;28;20041;-80
2024/04/02 03:26:28;;;;;;;28.33;8.38;;;;;;;;;;4989690;28;20035;-80
2024/04/02 03:28:54;;;;;;;20.42;8.50;;;;;;;;;;4989071;28;20518;-80
2024/04/02 03:31:19;;;;;;;16.83;8.02;;;;;;;;;;4988355;28;20084;-81
2024/04/02 03:33:45;;;;;;;25.83;8.55;;;;;;;;;;4989818;28;20038;-79
2024/04/02 03:36:11;;;;;;;18.55;8.80;;;;;;;;;;4988583;28;20145;-79
2024/04/02 03:38:37;;;;;;;12.15;7.95;;;;;;;;;;4988236;28;20042;-80
2024/04/02 03:41:08;;;;;;;15.13;7.90;;;;;;;;;;5004406;28;20466;-80
2024/04/02 03:43:34;;;;;;;20.85;8.68;;;;;;;;;;4991527;28;20038;-80
2024/04/02 03:46:03;;;;;;;20.48;8.93;;;;;;;;;;4988742;28;20046;-80
2024/04/02 03:48:30;;;;;;;22.73;7.85;;;;;;;;;;4982629;28;20037;-81
2024/04/02 03:50:56;;;;;;;28.27;8.00;;;;;;;;;;5004913;28;20120;-80
2024/04/02 03:53:21;;;;;;;19.33;8.63;;;;;;;;;;4987839;28;20380;-80
2024/04/02 03:55:47;;;;;;;20.95;7.85;;;;;;;;;;4989166;28;20042;-82
2024/04/02 03:58:16;;;;;;;26.27;7.97;;;;;;;;;;4992867;28;20049;-80
2024/04/02 04:00:42;;;;;;;16.23;7.55;;;;;;;;;;4993013;28;20039;-82
2024/04/02 04:03:09;;;;;;;21.50;8.07;;;;;;;;;;5006294;28;20173;-79
2024/04/02 04:05:35;;;;;;;19.50;8.63;;;;;;;;;;4989655;28;20042;-79
2024/04/02 04:08:00;;;;;;;17.08;7.63;;;;;;;;;;4986808;28;20399;-81
2024/04/02 04:10:27;;;;;;;11.73;6.20;;;;;;;;;;4989072;28;20050;-80
2024/04/02 04:12:52;;;;;;;16.58;7.60;;;;;;;;;;4988782;28;20177;-80
2024/04/02 04:15:18;;;;;;;15.65;6.78;;;;;;;;;;5002901;28;20097;-81
2024/04/02 04:17:44;;;;;;;12.95;7.40;;;;;;;;;;4988732;28;20558;-80
2024/04/02 04:20:10;;;;;;;18.75;8.02;;;;;;;;;;4986839;28;20092;-80
2024/04/02 04:22:36;;;;;;;27.35;7.75;;;;;;;;;;4987877;28;20065;-79
2024/04/02 04:25:03;;;;;;;18.75;8.38;;;;;;;;;;4991911;28;20410;-81
2024/04/02 04:27:36;;;;;;;25.48;8.02;;;;;;;;;;4993134;28;20030;-82
2024/04/02 04:30:03;;;;;;;20.92;8.25;;;;;;;;;;5006199;28;20038;-82
2024/04/02 04:32:29;;;;;;;24.17;8.82;;;;;;;;;;4994683;28;20031;-81
2024/04/02 04:34:55;;;;;;;23.17;8.00;;;;;;;;;;4994510;28;20042;-78
2024/04/02 04:37:21;;;;;;;19.80;8.07;;;;;;;;;;4990959;28;20066;-80
2024/04/02 04:39:47;;;;;;;16.58;7.57;;;;;;;;;;4992822;28;20052;-81
2024/04/02 04:42:13;;;;;;;17.05;9.02;;;;;;;;;;4991650;28;20507;-80
2024/04/02 04:44:42;;;;;;;19.63;7.30;;;;;;;;;;4994222;28;20515;-81
2024/04/02 04:47:07;;;;;;;22.77;8.73;;;;;;;;;;4999649;28;20046;-81
2024/04/02 04:49:33;;;;;;;14.73;8.40;;;;;;;;;;4997767;28;20106;-82
2024/04/02 04:51:59;;;;;;;13.27;7.68;;;;;;;;;;4992604;28;20058;-82
2024/04/02 04:54:25;;;;;;;19.20;8.18;;;;;;;;;;4991582;28;20034;-82
2024/04/02 04:56:51;;;;;;;33.22;8.88;;;;;;;;;;5012651;28;20050;-82
2024/04/02 04:59:16;;;;;;;19.98;8.95;;;;;;;;;;4997735;28;20117;-83
2024/04/02 05:01:42;;;;;;;14.93;8.05;;;;;;;;;;5001091;28;20102;-81
2024/04/02 05:04:09;;;;;;;16.40;8.43;;;;;;;;;;5004863;28;20042;-81
2024/04/02 05:06:38;;;;;;;21.08;8.45;;;;;;;;;;4994365;28;20045;-81
2024/04/02 05:09:04;;;;;;;22.40;7.80;;;;;;;;;;5001907;28;20054;-79
2024/04/02 05:11:30;;;;;;;31.83;8.10;;;;;;;;;;4992966;28;20041;-80
2024/04/02 05:13:57;;;;;;;19.55;7.85;;;;;;;;;;4998249;28;20410;-81
2024/04/02 05:16:23;;;;;;;18.95;8.43;;;;;;;;;;5004323;28;20046;-83
2024/04/02 05:18:49;;;;;;;22.70;8.48;;;;;;;;;;5008844;28;20034;-85
2024/04/02 05:21:15;;;;;;;17.50;8.60;;;;;;;;;;5007351;28;20030;-80
2024/04/02 05:23:41;;;;;;;22.27;7.95;;;;;;;;;;5010753;28;20056;-83
2024/04/02 05:26:08;;;;;;;19.75;7.85;;;;;;;;;;5009362;28;20047;-83
2024/04/02 05:28:34;;;;;;;17.38;8.05;;;;;;;;;;5011732;28;20026;-83
2024/04/02 05:31:00;;;;;;;20.38;8.73;;;;;;;;;;5007635;28;20534;-78
2024/04/02 05:33:25;;;;;;;18.92;8.25;;;;;;;;;;5004045;28;20080;-82
2024/04/02 05:35:52;;;;;;;13.73;8.65;;;;;;;;;;5006003;28;20046;-84
2024/04/02 05:38:17;;;;;;;18.73;8.10;;;;;;;;;;5002588;28;20038;-83
2024/04/02 05:40:43;;;;;;;17.50;8.60;;;;;;;;;;5005481;28;20046;-81
2024/04/02 05:43:09;;;;;;;23.45;9.63;;;;;;;;;;5003541;28;20065;-83
2024/04/02 05:45:35;;;;;;;18.95;8.02;;;;;;;;;;5009313;28;20035;-83
2024/04/02 05:48:01;;;;;;;21.27;8.00;;;;;;;;;;5008664;28;20074;-85
2024/04/02 05:50:27;;;;;;;29.55;9.77;;;;;;;;;;5007044;28;20038;-83
2024/04/02 05:52:52;;;;;;;19.98;8.80;;;;;;;;;;5007615;28;20018;-83
2024/04/02 05:55:18;;;;;;;21.02;8.82;;;;;;;;;;5022690;28;20061;-83
2024/04/02 05:57:45;;;;;;;17.45;8.18;;;;;;;;;;5009601;28;20070;-84
2024/04/02 06:00:11;;;;;;;21.95;9.63;;;;;;;;;;5018341;28;20050;-83
2024/04/02 06:02:42;;;;;;;24.63;9.30;;;;;;;;;;5012122;28;20116;-83
2024/04/02 06:05:08;;;;;;;29.95;9.30;;;;;;;;;;5007991;28;20106;-84
2024/04/02 06:07:34;;;;;;;21.35;9.15;;;;;;;;;;4988548;28;20038;-83
2024/04/02 06:10:00;;;;;;;26.95;8.68;;;;;;;;;;5001188;28;20109;-83
2024/04/02 06:12:26;;;;;;;22.33;8.00;;;;;;;;;;4993511;28;20027;-83
2024/04/02 06:14:51;;;;;;;23.55;8.23;;;;;;;;;;5016125;28;20076;-78
2024/04/02 06:17:17;;;;;;;27.05;8.93;;;;;;;;;;4991710;28;20156;-81
2024/04/02 06:19:43;;;;;;;29.15;8.38;;;;;;;;;;4985671;28;20041;-80
2024/04/02 06:22:09;;;;;;;23.90;9.10;;;;;;;;;;4993640;28;20117;-81
2024/04/02 06:24:35;;;;;;;19.40;8.13;;;;;;;;;;4987461;28;20019;-82
2024/04/02 06:27:04;;;;;;;31.75;8.68;;;;;;;;;;4996495;28;20050;-82
2024/04/02 06:29:30;;;;;;;23.20;8.30;;;;;;;;;;4984047;28;20399;-79
2024/04/02 06:31:56;;;;;;;21.88;8.80;;;;;;;;;;4984353;28;20034;-79
2024/04/02 06:34:21;;;;;;;23.02;8.90;;;;;;;;;;5003133;28;20395;-80
2024/04/02 06:36:47;;;;;;;20.55;8.45;;;;;;;;;;4984002;28;20494;-77
2024/04/02 06:39:13;;;;;;;23.00;9.70;;;;;;;;;;4981794;28;20042;-81
2024/04/02 06:41:39;;;;;;;21.80;9.73;;;;;;;;;;5003056;28;20026;-81
2024/04/02 06:44:05;;;;;;;30.23;8.73;;;;;;;;;;4994887;28;20065;-80
2024/04/02 06:46:30;;;;;;;29.77;8.95;;;;;;;;;;4992952;28;20038;-82
2024/04/02 06:48:57;;;;;;;20.27;9.05;;;;;;;;;;4995846;28;20117;-80
2024/04/02 06:51:24;;;;;;;24.88;9.77;;;;;;;;;;4998685;28;20052;-80
2024/04/02 06:53:50;;;;;;;29.52;9.40;;;;;;;;;;4995911;28;20109;-81
2024/04/02 06:56:16;;;;;;;32.38;10.32;;;;;;;;;;4998389;28;20420;-78
2024/04/02 06:58:42;;;;;;;19.88;8.73;;;;;;;;;;4995342;28;20038;-80
2024/04/02 07:01:08;;;;;;;31.63;11.15;;;;;;;;;;5010666;28;20050;-79
2024/04/02 07:03:34;;;;;;;25.95;9.32;;;;;;;;;;5014461;28;20037;-82
2024/04/02 07:06:00;;;;;;;31.50;12.98;;;;;;;;;;5009742;28;20042;-78
2024/04/02 07:08:26;;;;;;;21.40;9.77;;;;;;;;;;4987317;28;20132;-79
2024/04/02 07:10:59;;;;;;;29.20;9.05;;;;;;;;;;5007723;28;20042;-80
2024/04/02 07:13:25;;;;;;;20.88;8.43;;;;;;;;;;4975659;28;20038;-78
2024/04/02 07:15:51;;;;;;;33.63;9.90;;;;;;;;;;4989507;28;20046;-77
2024/04/02 07:18:17;;;;;;;39.13;9.73;;;;;;;;;;4987459;28;20364;-79
2024/04/02 07:20:43;;;;;;;23.02;8.77;;;;;;;;;;4988628;28;20486;-79
2024/04/02 07:23:09;;;;;;;24.00;8.90;;;;;;;;;;4988835;28;20037;-78
2024/04/02 07:25:35;;;;;;;25.70;8.32;;;;;;;;;;4988721;28;20070;-78
2024/04/02 07:28:01;;;;;;;22.33;8.23;;;;;;;;;;4991287;28;20523;-78
2024/04/02 07:30:28;;;;;;;33.90;7.80;;;;;;;;;;4990070;28;20100;-77
2024/04/02 07:32:54;;;;;;;28.58;9.02;;;;;;;;;;4985980;28;20570;-78
2024/04/02 07:35:20;;;;;;;24.13;9.48;;;;;;;;;;4987225;28;20158;-77
2024/04/02 07:37:45;;;;;;;26.92;9.00;;;;;;;;;;4988583;28;20387;-77
2024/04/02 07:40:11;;;;;;;30.60;8.45;;;;;;;;;;4986496;28;20290;-77
2024/04/02 07:42:37;;;;;;;22.45;7.95;;;;;;;;;;4990706;28;20523;-77
2024/04/02 07:45:03;;;;;;;23.77;7.85;;;;;;;;;;4986325;28;20499;-75
2024/04/02 07:47:31;;;;;;;29.42;8.90;;;;;;;;;;4984891;28;20064;-75
2024/04/02 07:49:56;;;;;;;27.52;7.57;;;;;;;;;;4981393;28;20566;-76
2024/04/02 07:52:22;;;;;;;29.10;8.23;;;;;;;;;;4986602;28;20510;-75
2024/04/02 07:54:48;;;;;;;27.35;7.63;;;;;;;;;;4988918;28;20117;-76
2024/04/02 07:57:14;;;;;;;39.30;9.05;;;;;;;;;;4986531;28;20418;-75
2024/04/02 07:59:40;;;;;;;30.75;8.43;;;;;;;;;;4987277;28;20034;-75
2024/04/02 08:02:05;;;;;;;22.65;9.10;;;;;;;;;;4986491;28;20038;-75
2024/04/02 08:04:31;;;;;;;33.83;7.90;;;;;;;;;;4985683;28;20096;-76
2024/04/02 08:06:57;;;;;;;35.22;9.02;;;;;;;;;;4987674;28;20044;-75
2024/04/02 08:12:08;;;;;;;33.92;8.52;;;;;;;;;;4987087;28;20088;-75
2024/04/02 08:14:34;;;;;;;27.13;8.48;;;;;;;;;;4986155;28;20026;-75
2024/04/02 08:16:59;;;;;;;20.05;8.68;;;;;;;;;;4989315;28;20050;-75
2024/04/02 08:19:26;;;;;;;36.78;8.65;;;;;;;;;;4991663;28;20501;-75
2024/04/02 08:21:52;;;;;;;29.00;7.68;;;;;;;;;;4988128;28;20538;-75
2024/04/02 08:24:17;;;;;;;28.30;8.60;;;;;;;;;;4991773;28;20048;-75
2024/04/02 08:26:43;;;;;;;37.28;8.20;;;;;;;;;;5001612;28;20133;-75
2024/04/02 08:29:09;;;;;;;34.10;8.80;;;;;;;;;;4979641;28;20038;-74
2024/04/02 08:31:35;;;;;;;20.10;6.35;;;;;;;;;;4979843;28;20098;-75
2024/04/02 08:34:01;;;;;;;38.55;8.18;;;;;;;;;;5001855;28;20034;-75
2024/04/02 08:36:27;;;;;;;39.22;9.18;;;;;;;;;;4965102;28;20054;-77
2024/04/02 08:38:53;;;;;;;34.33;8.80;;;;;;;;;;4979990;28;20030;-77
2024/04/02 08:41:18;;;;;;;32.60;8.60;;;;;;;;;;4982319;28;20048;-75
2024/04/02 08:43:44;;;;;;;24.48;7.60;;;;;;;;;;5007027;28;20382;-77
2024/04/02 08:46:10;;;;;;;26.08;7.72;;;;;;;;;;4990441;28;20050;-76
2024/04/02 08:48:36;;;;;;;30.10;8.57;;;;;;;;;;4985213;28;20054;-75
2024/04/02 08:51:05;;;;;;;34.13;9.65;;;;;;;;;;4982850;28;20069;-76
2024/04/02 08:53:34;;;;;;;25.20;8.60;;;;;;;;;;4978431;28;20113;-77
2024/04/02 08:56:00;;;;;;;34.53;8.03;;;;;;;;;;4975229;28;20050;-76
2024/04/02 08:58:26;;;;;;;29.90;7.82;;;;;;;;;;4980170;28;20044;-75
2024/04/02 09:00:53;;;;;;;35.38;7.75;;;;;;;;;;4959922;28;20037;-75
2024/04/02 09:03:19;;;;;;;29.10;8.07;;;;;;;;;;4979315;28;20034;-76
2024/04/02 09:05:45;;;;;;;25.67;7.35;;;;;;;;;;4980831;28;20109;-76
2024/04/02 09:08:13;;;;;;;35.40;8.07;;;;;;;;;;5005013;28;20038;-76
2024/04/02 09:10:39;;;;;;;27.50;8.35;;;;;;;;;;4990179;28;20073;-75
2024/04/02 09:13:05;;;;;;;35.67;7.68;;;;;;;;;;4992690;28;20034;-75
2024/04/02 09:15:31;;;;;;;34.38;8.77;;;;;;;;;;4989975;28;20058;-76
2024/04/02 09:17:57;;;;;;;31.63;8.00;;;;;;;;;;5008349;28;20075;-76
2024/04/02 09:20:23;;;;;;;35.13;7.90;;;;;;;;;;5010437;28;20034;-76
2024/04/02 09:22:49;;;;;;;42.38;7.90;;;;;;;;;;5000545;28;20042;-76
2024/04/02 09:25:16;;;;;;;32.30;7.15;;;;;;;;;;4995955;28;20657;-76
2024/04/02 09:27:43;;;;;;;28.55;7.55;;;;;;;;;;4991993;28;20081;-76
2024/04/02 09:30:10;;;;;;;32.25;7.22;;;;;;;;;;4991130;28;20038;-77
2024/04/02 09:32:36;;;;;;;31.15;7.85;;;;;;;;;;4991425;28;20030;-76
2024/04/02 09:35:02;;;;;;;28.90;7.28;;;;;;;;;;4989101;28;20034;-76
2024/04/02 09:37:36;;;;;;;27.88;7.10;;;;;;;;;;4990590;28;20585;-78
2024/04/02 09:40:03;;;;;;;32.08;8.32;;;;;;;;;;4989360;28;20088;-76
2024/04/02 09:42:31;;;;;;;26.55;7.47;;;;;;;;;;4984723;28;20038;-77
2024/04/02 09:45:00;;;;;;;25.60;7.10;;;;;;;;;;4972861;28;20026;-75
2024/04/02 09:47:26;;;;;;;27.77;7.60;;;;;;;;;;4981462;28;20030;-76
2024/04/02 09:49:52;;;;;;;26.75;7.57;;;;;;;;;;4986432;28;20030;-76
2024/04/02 09:52:19;;;;;;;30.17;7.45;;;;;;;;;;4988810;28;20049;-76
2024/04/02 09:54:45;;;;;;;22.92;7.47;;;;;;;;;;4990187;28;20034;-75
2024/04/02 09:57:11;;;;;;;35.08;8.27;;;;;;;;;;4990314;28;20058;-76
2024/04/02 09:59:37;;;;;;;32.78;7.30;;;;;;;;;;4991234;28;20042;-75
2024/04/02 10:02:03;;;;;;;31.42;8.35;;;;;;;;;;4991128;28;20088;-76
2024/04/02 10:04:29;;;;;;;31.83;7.13;;;;;;;;;;4991471;28;20414;-76
2024/04/02 10:07:00;;;;;;;32.60;7.07;;;;;;;;;;4989815;28;20038;-76
2024/04/02 10:09:26;;;;;;;30.70;7.40;;;;;;;;;;4990038;28;20418;-76
2024/04/02 10:11:52;;;;;;;36.03;7.40;;;;;;;;;;4988938;28;20030;-75
2024/04/02 10:14:20;;;;;;;33.85;7.78;;;;;;;;;;4990622;28;20030;-75
2024/04/02 10:16:49;;;;;;;46.03;6.93;;;;;;;;;;4972832;28;20060;-76
2024/04/02 10:19:28;;;;;;;30.00;7.80;;;;;;;;;;4989091;28;20030;-75
2024/04/02 10:21:54;;;;;;;28.55;7.88;;;;;;;;;;4990134;28;20432;-76
2024/04/02 10:24:21;;;;;;;44.15;8.15;;;;;;;;;;4987811;28;20037;-76
2024/04/02 10:26:56;;;;;;;37.33;7.90;;;;;;;;;;4989081;28;20038;-76
2024/04/02 10:29:29;;;;;;;38.75;8.25;;;;;;;;;;4989350;28;20034;-76
2024/04/02 10:31:58;;;;;;;40.67;7.38;;;;;;;;;;4987194;28;20045;-76
2024/04/02 10:34:24;;;;;;;33.28;7.85;;;;;;;;;;4990391;28;20022;-76
2024/04/02 10:36:50;;;;;;;27.33;7.78;;;;;;;;;;4971235;28;20050;-76
2024/04/02 10:39:16;;;;;;;41.42;7.50;;;;;;;;;;4989638;28;20031;-76
2024/04/02 10:41:43;;;;;;;30.83;7.22;;;;;;;;;;4989371;28;20457;-76
2024/04/02 10:44:11;;;;;;;31.15;7.05;;;;;;;;;;4989486;28;20042;-76
2024/04/02 10:46:39;;;;;;;30.48;7.63;;;;;;;;;;4987725;28;20042;-75
2024/04/02 10:49:04;;;;;;;41.03;8.02;;;;;;;;;;4987315;28;20518;-76
2024/04/02 10:51:31;;;;;;;50.00;9.13;;;;;;;;;;4989578;28;20128;-75
2024/04/02 10:53:57;;;;;;;38.78;8.48;;;;;;;;;;4988517;28;20030;-75
2024/04/02 10:56:23;;;;;;;36.97;9.10;;;;;;;;;;4988469;28;20051;-76
2024/04/02 10:58:50;;;;;;;43.65;8.60;;;;;;;;;;4990390;28;20038;-78
2024/04/02 11:01:16;;;;;;;37.83;7.50;;;;;;;;;;4988902;28;20038;-77
2024/04/02 11:03:42;;;;;;;33.53;7.60;;;;;;;;;;4988558;28;20030;-78
2024/04/02 11:06:10;;;;;;;23.13;6.95;;;;;;;;;;4970090;28;20069;-78
2024/04/02 11:08:38;;;;;;;32.72;7.70;;;;;;;;;;5005205;28;20105;-78
2024/04/02 11:11:04;;;;;;;43.33;7.72;;;;;;;;;;4989357;28;20158;-78
2024/04/02 11:13:33;;;;;;;35.65;7.90;;;;;;;;;;4991032;28;20740;-77
2024/04/02 11:15:59;;;;;;;43.38;7.63;;;;;;;;;;4988612;28;20120;-77
2024/04/02 11:18:25;;;;;;;31.27;7.47;;;;;;;;;;4989921;28;20034;-78
2024/04/02 11:21:00;;;;;;;42.08;8.32;;;;;;;;;;4988415;28;20037;-78
2024/04/02 11:26:18;;;;;;;35.40;8.00;;;;;;;;;;4986825;28;20086;-78
2024/04/02 11:28:44;;;;;;;38.75;8.52;;;;;;;;;;4990218;28;20474;-78
2024/04/02 11:31:11;;;;;;;41.03;7.18;;;;;;;;;;4990235;28;20038;-78
2024/04/02 11:33:37;;;;;;;46.58;9.80;;;;;;;;;;4989221;28;20030;-77
2024/04/02 11:36:04;;;;;;;39.15;8.30;;;;;;;;;;4986687;28;20058;-78
2024/04/02 11:38:30;;;;;;;32.22;7.07;;;;;;;;;;5004364;28;20057;-77
2024/04/02 11:40:56;;;;;;;42.13;7.28;;;;;;;;;;5004314;28;20069;-78
2024/04/02 11:43:23;;;;;;;37.88;6.85;;;;;;;;;;4989213;28;20773;-77
2024/04/02 11:45:49;;;;;;;41.95;7.97;;;;;;;;;;4989343;28;20050;-78
2024/04/02 11:48:15;;;;;;;31.13;7.72;;;;;;;;;;4987965;28;20418;-78
2024/04/02 11:50:41;;;;;;;39.92;7.85;;;;;;;;;;4989076;28;20077;-78
2024/04/02 11:53:07;;;;;;;29.55;6.78;;;;;;;;;;4991870;28;20046;-78
2024/04/02 11:55:33;;;;;;;33.03;7.25;;;;;;;;;;4989784;28;20054;-78
2024/04/02 12:00:43;;;;;;;41.92;7.85;;;;;;;;;;4992731;28;20026;-78
2024/04/02 12:03:09;;;;;;;40.72;8.35;;;;;;;;;;4991905;28;20554;-79
2024/04/02 12:05:36;;;;;;;45.50;8.02;;;;;;;;;;5006685;28;20125;-79
2024/04/02 12:08:02;;;;;;;33.33;7.80;;;;;;;;;;4991165;28;20906;-79
2024/04/02 12:10:28;;;;;;;50.55;8.93;;;;;;;;;;4992731;28;20045;-79
2024/04/02 12:12:54;;;;;;;36.67;7.40;;;;;;;;;;5008868;28;20038;-79
2024/04/02 12:15:20;;;;;;;40.40;9.35;;;;;;;;;;4991878;28;20125;-78
2024/04/02 12:17:46;;;;;;;42.25;9.38;;;;;;;;;;4992350;28;20034;-79
2024/04/02 12:20:12;;;;;;;49.65;8.55;;;;;;;;;;4991365;28;20030;-79
2024/04/02 12:22:38;;;;;;;29.67;6.93;;;;;;;;;;4991657;28;20042;-78
2024/04/02 12:25:04;;;;;;;40.75;9.15;;;;;;;;;;4991589;28;20495;-78
2024/04/02 12:27:31;;;;;;;36.03;9.27;;;;;;;;;;5009608;28;20058;-77
2024/04/02 12:29:57;;;;;;;40.53;8.30;;;;;;;;;;5008951;28;20041;-76
2024/04/02 12:32:28;;;;;;;35.90;7.72;;;;;;;;;;4994542;28;20172;-77
2024/04/02 12:34:54;;;;;;;36.65;7.38;;;;;;;;;;4983519;28;20062;-77
2024/04/02 12:37:20;;;;;;;45.97;7.43;;;;;;;;;;4998631;28;20049;-77
2024/04/02 12:39:47;;;;;;;50.17;8.93;;;;;;;;;;4997276;28;20030;-78
2024/04/02 12:42:14;;;;;;;35.20;7.65;;;;;;;;;;4992512;28;20049;-78
2024/04/02 12:44:40;;;;;;;33.80;8.68;;;;;;;;;;5007311;28;20037;-77
2024/04/02 12:47:06;;;;;;;43.20;8.85;;;;;;;;;;4990365;28;20467;-78
2024/04/02 12:49:33;;;;;;;41.78;8.77;;;;;;;;;;4991900;28;20044;-77
2024/04/02 12:51:59;;;;;;;44.45;8.95;;;;;;;;;;4991961;28;20537;-77
2024/04/02 12:54:25;;;;;;;38.85;7.55;;;;;;;;;;4991140;28;20034;-77
2024/04/02 12:56:51;;;;;;;40.50;8.25;;;;;;;;;;5005289;28;20581;-78
2024/04/02 12:59:17;;;;;;;41.15;9.50;;;;;;;;;;4991253;28;20039;-78
2024/04/02 13:02:01;;;;;;;36.78;8.48;;;;;;;;;;4990460;28;20510;-77
2024/04/02 13:04:27;;;;;;;44.33;7.80;;;;;;;;;;4991293;28;20121;-77
2024/04/02 13:06:53;;;;;;;39.90;8.38;;;;;;;;;;4991632;28;20189;-78
2024/04/02 13:09:19;;;;;;;29.73;8.25;;;;;;;;;;4991027;28;20058;-77
2024/04/02 13:11:45;;;;;;;41.15;8.30;;;;;;;;;;4989203;28;20026;-77
2024/04/02 13:14:14;;;;;;;31.88;6.72;;;;;;;;;;4991107;28;20084;-78
2024/04/02 13:16:41;;;;;;;38.70;8.20;;;;;;;;;;5005806;28;20105;-78
2024/04/02 13:19:07;;;;;;;36.97;8.60;;;;;;;;;;4990915;28;20030;-77
2024/04/02 13:21:33;;;;;;;38.58;8.13;;;;;;;;;;4992531;28;20049;-77
2024/04/02 13:23:59;;;;;;;44.90;8.30;;;;;;;;;;5005936;28;20583;-77
2024/04/02 13:26:26;;;;;;;42.88;8.70;;;;;;;;;;4989919;28;20096;-78
2024/04/02 13:28:56;;;;;;;44.05;8.68;;;;;;;;;;4990782;28;20057;-77
2024/04/02 13:31:22;;;;;;;45.58;9.75;;;;;;;;;;4989774;28;20077;-77
2024/04/02 13:33:56;;;;;;;43.38;8.40;;;;;;;;;;4991416;28;20121;-77
2024/04/02 13:36:22;;;;;;;33.58;7.60;;;;;;;;;;5005267;28;20141;-77
2024/04/02 13:38:48;;;;;;;35.20;7.38;;;;;;;;;;5005734;28;20121;-77
2024/04/02 13:41:14;;;;;;;53.20;7.45;;;;;;;;;;5005735;28;20077;-78
2024/04/02 13:43:40;;;;;;;44.95;8.18;;;;;;;;;;4989944;28;20402;-79
2024/04/02 13:46:06;;;;;;;52.75;9.60;;;;;;;;;;4989646;28;20050;-78
2024/04/02 13:48:32;;;;;;;40.22;8.13;;;;;;;;;;4974454;28;20719;-78
2024/04/02 13:51:08;;;;;;;29.38;6.90;;;;;;;;;;4989700;28;20034;-77
2024/04/02 13:53:35;;;;;;;40.13;6.93;;;;;;;;;;4999403;28;20038;-78
2024/04/02 13:56:01;;;;;;;31.33;7.35;;;;;;;;;;4989687;28;20108;-79
2024/04/02 13:58:27;;;;;;;36.78;7.57;;;;;;;;;;4990046;28;20030;-78
2024/04/02 14:00:53;;;;;;;36.15;7.63;;;;;;;;;;4989981;28;20057;-77
2024/04/02 14:03:20;;;;;;;49.90;8.35;;;;;;;;;;4973944;28;20034;-76
2024/04/02 14:05:46;;;;;;;32.75;7.88;;;;;;;;;;4990858;28;20071;-77
2024/04/02 14:08:12;;;;;;;27.33;7.15;;;;;;;;;;4990322;28;20032;-78
2024/04/02 14:10:38;;;;;;;36.28;7.40;;;;;;;;;;4989290;28;20038;-77
2024/04/02 14:13:07;;;;;;;21.20;6.88;;;;;;;;;;5005377;28;20522;-77
2024/04/02 14:15:33;;;;;;;29.25;8.30;;;;;;;;;;4972974;28;20077;-78
2024/04/02 14:17:59;;;;;;;32.45;8.48;;;;;;;;;;5005134;28;20031;-78
2024/04/02 14:20:24;;;;;;;33.63;7.75;;;;;;;;;;4990259;28;20037;-78
2024/04/02 14:22:50;;;;;;;28.00;7.72;;;;;;;;;;5005267;28;20034;-78
2024/04/02 14:25:17;;;;;;;31.25;7.55;;;;;;;;;;5004085;28;20042;-77
2024/04/02 14:27:45;;;;;;;30.58;7.43;;;;;;;;;;4989982;28;20058;-77
2024/04/02 14:30:11;;;;;;;37.47;7.95;;;;;;;;;;4989654;28;20038;-78
2024/04/02 14:32:37;;;;;;;27.77;7.93;;;;;;;;;;4989614;28;20827;-76